createdAt,value
2023-01-19T00:00:57.046Z,83.66
2023-01-19T00:03:24.547Z,83.67
2023-01-19T00:05:52.155Z,83.69
2023-01-19T00:08:19.204Z,83.68
2023-01-19T00:10:51.149Z,83.68
2023-01-19T00:13:18.023Z,83.83
2023-01-19T00:15:44.985Z,83.87
2023-01-19T00:18:11.862Z,83.85
2023-01-19T00:20:39.949Z,83.90
2023-01-19T00:23:08.373Z,83.91
2023-01-19T00:25:36.110Z,83.91
2023-01-19T00:28:03.123Z,83.93
2023-01-19T00:30:30.095Z,83.99
2023-01-19T00:33:02.071Z,83.96
2023-01-19T00:35:32.460Z,84.07
2023-01-19T00:37:59.755Z,84.07
2023-01-19T00:40:26.645Z,84.13
2023-01-19T00:42:53.694Z,84.31
2023-01-19T00:45:21.991Z,84.44
2023-01-19T00:47:50.479Z,84.36
2023-01-19T00:50:17.499Z,84.37
2023-01-19T00:52:44.626Z,84.34
2023-01-19T00:55:13.147Z,84.42
2023-01-19T00:57:40.550Z,84.59
2023-01-19T01:00:11.343Z,84.55
2023-01-19T01:02:40.092Z,84.58
2023-01-19T01:05:07.673Z,84.63
2023-01-19T01:07:40.812Z,84.62
2023-01-19T01:10:13.849Z,84.67
2023-01-19T01:12:41.418Z,84.70
2023-01-19T01:15:23.077Z,84.79
2023-01-19T01:17:53.149Z,84.89
2023-01-19T01:20:22.051Z,85.06
2023-01-19T01:22:50.521Z,85.14
2023-01-19T01:25:19.003Z,85.30
2023-01-19T01:27:45.881Z,85.40
2023-01-19T01:30:13.892Z,85.51
2023-01-19T01:32:41.178Z,85.60
2023-01-19T01:35:09.160Z,85.73
2023-01-19T01:37:36.997Z,85.79
2023-01-19T01:40:05.252Z,85.82
2023-01-19T01:42:32.654Z,85.91
2023-01-19T01:45:02.144Z,86.00
2023-01-19T01:47:31.726Z,86.01
2023-01-19T01:50:09.948Z,86.13
2023-01-19T01:52:39.019Z,86.09
2023-01-19T01:55:07.313Z,86.23
2023-01-19T01:57:39.091Z,86.42
2023-01-19T02:00:06.659Z,86.52
2023-01-19T02:02:55.249Z,86.63
2023-01-19T02:05:23.669Z,86.79
2023-01-19T02:08:09.334Z,86.91
2023-01-19T02:10:54.855Z,87.06
2023-01-19T02:13:21.934Z,87.25
2023-01-19T02:15:53.360Z,87.35
2023-01-19T02:18:21.490Z,87.39
2023-01-19T02:20:53.810Z,87.51
2023-01-19T02:23:47.796Z,87.57
2023-01-19T02:26:20.661Z,87.62
2023-01-19T02:28:57.618Z,87.58
2023-01-19T02:31:24.893Z,87.68
2023-01-19T02:33:51.798Z,87.76
2023-01-19T02:36:21.331Z,87.81
2023-01-19T02:38:48.294Z,87.99
2023-01-19T02:41:19.711Z,88.15
2023-01-19T02:43:46.609Z,88.15
2023-01-19T02:46:14.387Z,88.28
2023-01-19T02:48:41.896Z,88.29
2023-01-19T02:51:12.705Z,88.39
2023-01-19T02:53:48.745Z,88.54
2023-01-19T02:56:23.493Z,88.58
2023-01-19T02:59:32.328Z,88.66
2023-01-19T03:02:18.531Z,88.61
2023-01-19T03:04:48.612Z,88.76
2023-01-19T03:07:50.904Z,88.87
2023-01-19T03:10:26.553Z,88.94
2023-01-19T03:13:03.607Z,88.97
2023-01-19T03:15:38.929Z,89.04
2023-01-19T03:18:06.984Z,89.17
2023-01-19T03:20:34.038Z,89.22
2023-01-19T03:23:03.497Z,89.35
2023-01-19T03:25:32.080Z,89.33
2023-01-19T03:27:59.036Z,89.34
2023-01-19T03:30:30.937Z,89.45
2023-01-19T03:33:13.225Z,89.59
2023-01-19T03:35:42.366Z,89.69
2023-01-19T03:38:12.525Z,89.76
2023-01-19T03:40:39.360Z,89.82
2023-01-19T03:43:06.212Z,89.98
2023-01-19T03:45:33.643Z,90.07
2023-01-19T03:48:00.507Z,90.22
2023-01-19T03:50:28.888Z,90.19
2023-01-19T03:53:10.067Z,90.22
2023-01-19T03:55:37.927Z,90.24
2023-01-19T03:58:04.873Z,90.27
2023-01-19T04:00:31.667Z,90.29
2023-01-19T04:02:58.991Z,90.39
2023-01-19T04:05:26.134Z,90.48
2023-01-19T04:07:53.168Z,90.54
2023-01-19T04:10:20.064Z,90.61
2023-01-19T04:12:47.107Z,90.60
2023-01-19T04:15:14.010Z,90.61
2023-01-19T04:17:41.047Z,90.65
2023-01-19T04:20:09.022Z,90.72
2023-01-19T04:22:36.000Z,90.77
2023-01-19T04:25:03.426Z,90.76
2023-01-19T04:27:30.527Z,90.88
2023-01-19T04:29:57.392Z,90.89
2023-01-19T04:32:24.371Z,90.82
2023-01-19T04:34:51.797Z,90.91
2023-01-19T04:37:18.613Z,90.86
2023-01-19T04:39:45.440Z,90.87
2023-01-19T04:42:12.347Z,90.98
2023-01-19T04:44:39.276Z,90.96
2023-01-19T04:47:06.531Z,91.03
2023-01-19T04:49:33.351Z,91.08
2023-01-19T04:52:01.282Z,91.09
2023-01-19T04:54:28.151Z,91.03
2023-01-19T04:56:55.246Z,91.01
2023-01-19T04:59:22.118Z,91.04
2023-01-19T05:01:49.085Z,91.11
2023-01-19T05:04:16.289Z,91.08
2023-01-19T05:06:43.072Z,91.23
2023-01-19T05:09:13.167Z,91.21
2023-01-19T05:11:40.076Z,91.29
2023-01-19T05:14:07.101Z,91.29
2023-01-19T05:16:34.814Z,91.27
2023-01-19T05:19:01.636Z,91.33
2023-01-19T05:21:28.708Z,91.41
2023-01-19T05:23:55.520Z,91.47
2023-01-19T05:26:22.308Z,91.54
2023-01-19T05:28:50.330Z,91.64
2023-01-19T05:31:18.787Z,91.82
2023-01-19T05:33:46.545Z,91.85
2023-01-19T05:36:13.451Z,91.98
2023-01-19T05:38:40.280Z,92.05
2023-01-19T05:41:07.226Z,92.17
2023-01-19T05:43:34.062Z,92.14
2023-01-19T05:46:00.856Z,92.26
2023-01-19T05:48:27.677Z,92.26
2023-01-19T05:50:57.984Z,92.30
2023-01-19T05:53:24.774Z,92.31
2023-01-19T05:55:51.863Z,92.41
2023-01-19T05:58:18.613Z,92.43
2023-01-19T06:00:45.451Z,92.51
2023-01-19T06:03:12.866Z,92.51
2023-01-19T06:05:39.967Z,92.64
2023-01-19T06:08:07.209Z,92.67
2023-01-19T06:10:34.133Z,92.74
2023-01-19T06:13:01.192Z,92.90
2023-01-19T06:15:28.631Z,92.88
2023-01-19T06:17:55.601Z,92.93
2023-01-19T06:20:22.546Z,92.97
2023-01-19T06:22:49.394Z,93.07
2023-01-19T06:25:16.141Z,93.11
2023-01-19T06:27:46.457Z,93.16
2023-01-19T06:30:14.976Z,93.22
2023-01-19T06:32:41.740Z,93.29
2023-01-19T06:35:09.444Z,93.39
2023-01-19T06:37:37.113Z,93.46
2023-01-19T06:40:05.119Z,93.48
2023-01-19T06:42:32.083Z,93.48
2023-01-19T06:44:59.257Z,93.47
2023-01-19T06:47:26.250Z,93.51
2023-01-19T06:49:53.594Z,93.53
2023-01-19T06:52:21.115Z,93.59
2023-01-19T06:54:48.567Z,93.68
2023-01-19T06:57:16.844Z,93.76
2023-01-19T06:59:44.276Z,93.72
2023-01-19T07:02:26.490Z,93.77
2023-01-19T07:04:54.565Z,93.78
2023-01-19T07:07:22.592Z,93.76
2023-01-19T07:09:49.612Z,93.88
2023-01-19T07:12:21.609Z,93.92
2023-01-19T07:14:49.646Z,93.91
2023-01-19T07:17:16.757Z,93.94
2023-01-19T07:19:43.641Z,94.06
2023-01-19T07:22:10.995Z,94.19
2023-01-19T07:24:38.403Z,94.12
2023-01-19T07:27:06.336Z,94.16
2023-01-19T07:29:33.468Z,94.23
2023-01-19T07:32:01.746Z,94.35
2023-01-19T07:34:28.655Z,94.50
2023-01-19T07:36:58.576Z,94.60
2023-01-19T07:39:25.458Z,94.69
2023-01-19T07:41:52.931Z,94.74
2023-01-19T07:44:23.335Z,94.85
2023-01-19T07:46:51.356Z,94.92
2023-01-19T07:49:18.263Z,95.15
2023-01-19T07:51:45.109Z,95.14
2023-01-19T07:54:12.267Z,95.34
2023-01-19T07:56:41.531Z,95.30
2023-01-19T07:59:10.347Z,95.44
2023-01-19T08:01:38.068Z,95.51
2023-01-19T08:04:06.011Z,95.62
2023-01-19T08:06:34.549Z,95.64
2023-01-19T08:09:01.500Z,95.71
2023-01-19T08:11:28.753Z,95.70
2023-01-19T08:21:35.775Z,96.22
2023-01-19T08:24:02.747Z,96.24
2023-01-19T08:26:34.487Z,96.19
2023-01-19T08:29:03.129Z,96.24
2023-01-19T08:31:30.366Z,96.28
2023-01-19T08:33:57.562Z,96.47
2023-01-19T08:36:25.409Z,96.51
2023-01-19T08:38:52.594Z,96.55
2023-01-19T08:41:19.453Z,96.59
2023-01-19T08:43:46.374Z,96.54
2023-01-19T08:46:17.169Z,96.51
2023-01-19T08:48:48.541Z,96.30
2023-01-19T08:51:15.934Z,95.84
2023-01-19T08:53:43.408Z,95.03
2023-01-19T08:56:14.491Z,94.48
2023-01-19T08:58:42.384Z,93.93
2023-01-19T09:01:09.782Z,93.12
2023-01-19T09:03:37.056Z,92.11
2023-01-19T09:06:09.235Z,90.96
2023-01-19T09:08:36.139Z,89.86
2023-01-19T09:11:03.070Z,89.31
2023-01-19T09:13:30.056Z,88.79
2023-01-19T09:15:56.890Z,88.25
2023-01-19T09:18:23.792Z,87.80
2023-01-19T09:20:51.036Z,87.40
2023-01-19T09:23:19.212Z,86.81
2023-01-19T09:25:46.661Z,86.30
2023-01-19T09:28:15.165Z,85.73
2023-01-19T09:30:42.654Z,85.21
2023-01-19T09:33:12.088Z,84.83
2023-01-19T09:35:39.469Z,84.45
2023-01-19T09:38:10.630Z,83.93
2023-01-19T09:40:42.312Z,83.75
2023-01-19T09:43:40.261Z,83.44
2023-01-19T09:46:12.561Z,83.02
2023-01-19T09:48:45.728Z,82.77
2023-01-19T09:51:39.481Z,82.61
2023-01-19T09:54:30.167Z,82.40
2023-01-19T09:56:56.971Z,82.29
2023-01-19T09:59:25.802Z,82.28
2023-01-19T10:02:18.962Z,82.22
2023-01-19T10:04:53.469Z,82.12
2023-01-19T10:07:33.321Z,82.09
2023-01-19T10:10:06.187Z,81.88
2023-01-19T10:12:43.214Z,81.92
2023-01-19T10:15:35.153Z,81.92
2023-01-19T10:18:18.772Z,81.85
2023-01-19T10:20:55.378Z,81.91
2023-01-19T10:23:30.126Z,81.83
2023-01-19T10:25:57.001Z,81.84
2023-01-19T10:28:24.298Z,81.83
2023-01-19T10:30:51.947Z,81.73
2023-01-19T10:33:18.975Z,81.72
2023-01-19T10:35:48.903Z,81.51
2023-01-19T10:38:16.380Z,81.44
2023-01-19T10:40:48.527Z,81.21
2023-01-19T10:43:36.455Z,81.10
2023-01-19T10:46:23.618Z,81.03
2023-01-19T10:48:51.888Z,80.77
2023-01-19T10:51:19.365Z,80.65
2023-01-19T10:53:55.494Z,80.56
2023-01-19T10:56:24.676Z,80.32
2023-01-19T10:58:51.643Z,80.12
2023-01-19T11:01:21.136Z,79.82
2023-01-19T11:03:48.088Z,79.54
2023-01-19T11:06:18.743Z,79.25
2023-01-19T11:08:46.630Z,79.07
2023-01-19T11:11:13.916Z,78.94
2023-01-19T11:13:41.570Z,78.72
2023-01-19T11:16:15.037Z,78.59
2023-01-19T11:18:41.745Z,78.50
2023-01-19T11:21:13.061Z,78.43
2023-01-19T11:23:44.310Z,78.39
2023-01-19T11:26:16.503Z,78.23
2023-01-19T11:28:46.907Z,77.96
2023-01-19T11:31:14.019Z,77.82
2023-01-19T11:33:49.047Z,77.86
2023-01-19T11:36:21.129Z,77.77
2023-01-19T11:38:50.772Z,77.79
2023-01-19T11:41:23.930Z,77.77
2023-01-19T11:43:55.271Z,77.76
2023-01-19T11:46:24.036Z,77.69
2023-01-19T11:49:02.030Z,77.69
2023-01-19T11:51:34.569Z,77.65
2023-01-19T11:54:01.551Z,77.57
2023-01-19T11:56:29.228Z,77.45
2023-01-19T11:58:58.165Z,77.47
2023-01-19T12:01:29.567Z,77.32
2023-01-19T12:04:16.413Z,77.11
2023-01-19T12:06:47.882Z,77.13
2023-01-19T12:09:20.698Z,76.90
2023-01-19T12:11:53.692Z,76.77
2023-01-19T12:14:29.118Z,76.59
2023-01-19T12:16:57.877Z,76.54
2023-01-19T12:19:54.836Z,76.48
2023-01-19T12:22:22.640Z,76.36
2023-01-19T12:24:55.555Z,76.27
2023-01-19T12:27:44.033Z,76.12
2023-01-19T12:30:18.050Z,75.88
2023-01-19T12:32:45.155Z,75.72
2023-01-19T12:35:50.037Z,75.54
2023-01-19T12:38:37.655Z,75.37
2023-01-19T12:41:20.538Z,75.00
2023-01-19T12:43:48.450Z,74.80
2023-01-19T12:46:29.032Z,74.52
2023-01-19T12:49:02.704Z,74.01
2023-01-19T12:51:29.445Z,73.36
2023-01-19T12:53:57.966Z,72.81
2023-01-19T12:56:30.281Z,72.46
2023-01-19T12:58:57.013Z,72.32
2023-01-19T13:01:25.008Z,71.98
2023-01-19T13:04:09.244Z,71.76
2023-01-19T13:06:48.392Z,71.49
2023-01-19T13:09:38.418Z,71.30
2023-01-19T13:12:14.367Z,71.02
2023-01-19T13:14:42.195Z,71.04
2023-01-19T13:17:52.569Z,70.90
2023-01-19T13:20:24.125Z,70.75
2023-01-19T13:23:14.499Z,70.63
2023-01-19T13:25:41.335Z,70.55
2023-01-19T13:28:09.643Z,70.47
2023-01-19T13:30:36.819Z,70.32
2023-01-19T13:33:18.136Z,70.32
2023-01-19T13:36:03.120Z,70.35
2023-01-19T13:38:29.978Z,70.22
2023-01-19T13:40:56.772Z,70.37
2023-01-19T13:43:33.803Z,70.42
2023-01-19T13:46:00.730Z,70.47
2023-01-19T13:48:27.524Z,70.66
2023-01-19T13:51:02.276Z,70.78
2023-01-19T13:53:30.510Z,70.80
2023-01-19T13:56:07.862Z,70.82
2023-01-19T13:58:34.785Z,70.98
2023-01-19T14:01:02.287Z,71.03
2023-01-19T14:03:29.180Z,71.19
2023-01-19T14:05:56.138Z,71.26
2023-01-19T14:08:23.166Z,71.39
2023-01-19T14:11:01.299Z,71.61
2023-01-19T14:13:30.015Z,71.67
2023-01-19T14:16:16.482Z,71.84
2023-01-19T14:18:43.442Z,71.99
2023-01-19T14:21:12.309Z,72.06
2023-01-19T14:23:43.569Z,72.26
2023-01-19T14:26:46.140Z,72.41
2023-01-19T14:29:24.829Z,72.38
2023-01-19T14:32:01.119Z,72.36
2023-01-19T14:34:48.558Z,72.61
2023-01-19T14:37:28.761Z,72.85
2023-01-19T14:40:08.214Z,72.76
2023-01-19T14:42:43.998Z,72.85
2023-01-19T14:45:21.363Z,73.05
2023-01-19T14:48:04.875Z,73.12
2023-01-19T14:50:33.350Z,73.08
2023-01-19T14:53:21.568Z,73.11
2023-01-19T14:55:54.615Z,73.04
2023-01-19T14:58:22.604Z,73.22
2023-01-19T15:00:49.781Z,73.20
2023-01-19T15:03:16.859Z,73.29
2023-01-19T15:05:45.259Z,73.26
2023-01-19T15:08:17.029Z,73.38
2023-01-19T15:10:43.962Z,73.35
2023-01-19T15:13:19.443Z,73.31
2023-01-19T15:15:46.361Z,73.23
2023-01-19T15:18:25.064Z,73.29
2023-01-19T15:20:52.810Z,73.35
2023-01-19T15:31:03.677Z,73.50
2023-01-19T15:33:30.833Z,73.46
2023-01-19T15:35:57.777Z,73.39
2023-01-19T15:38:24.662Z,73.34
2023-01-19T15:40:51.809Z,73.46
2023-01-19T15:43:18.812Z,73.51
2023-01-19T15:45:55.296Z,73.59
2023-01-19T15:48:22.649Z,73.61
2023-01-19T15:50:49.462Z,73.64
2023-01-19T15:53:18.632Z,73.80
2023-01-19T15:55:49.119Z,73.77
2023-01-19T15:58:16.070Z,73.85
2023-01-19T16:00:42.934Z,73.77
2023-01-19T16:03:10.500Z,73.68
2023-01-19T16:05:42.855Z,73.64
2023-01-19T16:08:11.346Z,73.69
2023-01-19T16:10:38.198Z,73.63
2023-01-19T16:13:05.088Z,73.62
2023-01-19T16:15:34.827Z,73.62
2023-01-19T16:18:01.796Z,73.61
2023-01-19T16:20:28.541Z,73.69
2023-01-19T16:23:00.722Z,73.45
2023-01-19T16:25:33.012Z,73.49
2023-01-19T16:28:00.404Z,73.49
2023-01-19T16:30:27.393Z,73.43
2023-01-19T16:32:54.161Z,73.48
2023-01-19T16:35:20.976Z,73.37
2023-01-19T16:37:50.622Z,73.44
2023-01-19T16:40:17.724Z,73.45
2023-01-19T16:42:47.348Z,73.52
2023-01-19T16:45:14.176Z,73.69
2023-01-19T16:47:41.119Z,73.71
2023-01-19T16:50:11.159Z,73.81
2023-01-19T16:52:38.612Z,73.80
2023-01-19T16:55:09.468Z,73.70
2023-01-19T16:57:39.312Z,73.72
2023-01-19T17:00:07.406Z,73.87
2023-01-19T17:02:34.210Z,74.02
2023-01-19T17:05:01.104Z,74.11
2023-01-19T17:07:28.105Z,74.16
2023-01-19T17:09:54.884Z,74.16
2023-01-19T17:12:21.628Z,74.24
2023-01-19T17:14:48.369Z,74.29
2023-01-19T17:17:15.125Z,74.40
2023-01-19T17:19:42.084Z,74.48
2023-01-19T17:22:09.077Z,74.59
2023-01-19T17:24:35.928Z,74.64
2023-01-19T17:27:02.700Z,74.76
2023-01-19T17:29:29.556Z,74.76
2023-01-19T17:31:56.673Z,74.69
2023-01-19T17:34:23.468Z,74.59
2023-01-19T17:36:50.567Z,74.76
2023-01-19T17:39:18.616Z,74.87
2023-01-19T17:41:45.635Z,74.87
2023-01-19T17:44:12.474Z,74.88
2023-01-19T17:46:39.412Z,74.91
2023-01-19T17:49:07.155Z,75.07
2023-01-19T17:51:34.373Z,75.21
2023-01-19T17:54:01.439Z,75.26
2023-01-19T17:56:30.449Z,75.33
2023-01-19T17:58:57.960Z,75.50
2023-01-19T18:01:26.635Z,75.44
2023-01-19T18:03:53.826Z,75.50
2023-01-19T18:06:21.415Z,75.47
2023-01-19T18:08:48.660Z,75.55
2023-01-19T18:11:16.958Z,75.46
2023-01-19T18:13:44.911Z,75.57
2023-01-19T18:16:14.016Z,75.55
2023-01-19T18:18:41.347Z,75.54
2023-01-19T18:21:09.694Z,75.58
2023-01-19T18:23:36.593Z,75.67
2023-01-19T18:26:05.793Z,75.83
2023-01-19T18:28:33.109Z,75.79
2023-01-19T18:31:00.441Z,75.76
2023-01-19T18:33:28.066Z,75.77
2023-01-19T18:35:55.050Z,75.83
2023-01-19T18:38:22.525Z,75.91
2023-01-19T18:40:49.299Z,76.04
2023-01-19T18:43:16.213Z,76.11
2023-01-19T18:45:43.154Z,76.19
2023-01-19T18:48:10.071Z,76.11
2023-01-19T18:50:37.640Z,76.28
2023-01-19T18:53:04.523Z,76.20
2023-01-19T18:55:31.468Z,76.21
2023-01-19T18:57:58.300Z,76.27
2023-01-19T19:00:25.171Z,76.40
2023-01-19T19:02:52.303Z,76.41
2023-01-19T19:05:19.269Z,76.41
2023-01-19T19:07:46.198Z,76.41
2023-01-19T19:10:13.286Z,76.41
2023-01-19T19:12:40.394Z,76.37
2023-01-19T19:15:08.084Z,76.36
2023-01-19T19:17:35.755Z,76.32
2023-01-19T19:20:03.317Z,76.48
2023-01-19T19:22:30.485Z,76.56
2023-01-19T19:24:57.240Z,76.66
2023-01-19T19:27:24.048Z,76.67
2023-01-19T19:29:50.806Z,76.74
2023-01-19T19:32:20.618Z,76.88
2023-01-19T19:34:52.874Z,76.84
2023-01-19T19:37:20.281Z,76.87
2023-01-19T19:39:47.727Z,77.05
2023-01-19T19:42:14.825Z,76.95
2023-01-19T19:44:41.808Z,76.96
2023-01-19T19:47:08.653Z,77.01
2023-01-19T19:49:35.928Z,76.91
2023-01-19T19:52:02.768Z,76.98
2023-01-19T19:54:29.820Z,76.95
2023-01-19T19:56:56.661Z,76.96
2023-01-19T19:59:23.817Z,76.86
2023-01-19T20:01:53.959Z,76.74
2023-01-19T20:04:23.142Z,76.81
2023-01-19T20:06:50.586Z,76.79
2023-01-19T20:09:18.049Z,76.54
2023-01-19T20:11:46.813Z,76.58
2023-01-19T20:14:13.980Z,76.58
2023-01-19T20:16:40.905Z,76.60
2023-01-19T20:19:08.194Z,76.63
2023-01-19T20:21:39.833Z,76.60
2023-01-19T20:24:10.213Z,76.57
2023-01-19T20:26:40.890Z,76.70
2023-01-19T20:29:07.925Z,76.70
2023-01-19T20:31:36.832Z,76.92
2023-01-19T20:34:05.107Z,76.91
2023-01-19T20:36:32.570Z,76.94
2023-01-19T20:38:59.828Z,77.10
2023-01-19T20:41:27.807Z,77.25
2023-01-19T20:43:54.994Z,77.28
2023-01-19T20:46:21.965Z,77.33
2023-01-19T20:48:53.100Z,77.31
2023-01-19T20:51:20.713Z,77.32
2023-01-19T20:53:47.874Z,77.33
2023-01-19T20:56:15.334Z,77.39
2023-01-19T20:58:42.467Z,77.35
2023-01-19T21:01:14.029Z,77.38
2023-01-19T21:03:41.370Z,77.36
2023-01-19T21:06:08.692Z,77.36
2023-01-19T21:08:35.927Z,77.41
2023-01-19T21:11:03.207Z,77.37
2023-01-19T21:13:30.978Z,77.23
2023-01-19T21:15:58.944Z,77.25
2023-01-19T21:18:28.156Z,77.39
2023-01-19T21:20:57.864Z,77.49
2023-01-19T21:23:26.438Z,77.52
2023-01-19T21:25:55.189Z,77.69
2023-01-19T21:28:23.127Z,77.61
2023-01-19T21:30:51.501Z,77.65
2023-01-19T21:33:19.338Z,77.66
2023-01-19T21:35:56.880Z,77.79
2023-01-19T21:38:25.301Z,77.90
2023-01-19T21:40:52.191Z,77.96
2023-01-19T21:43:20.191Z,77.84
2023-01-19T21:45:47.714Z,77.89
2023-01-19T21:48:15.351Z,78.04
2023-01-19T21:50:42.361Z,78.04
2023-01-19T21:53:11.303Z,78.08
2023-01-19T21:55:39.686Z,78.26
2023-01-19T21:58:06.588Z,78.31
2023-01-19T22:00:33.558Z,78.25
2023-01-19T22:03:04.136Z,78.21
2023-01-19T22:05:36.797Z,78.36
2023-01-19T22:08:06.419Z,78.30
2023-01-19T22:10:37.519Z,78.32
2023-01-19T22:13:06.828Z,78.33
2023-01-19T22:15:33.898Z,78.41
2023-01-19T22:18:02.227Z,78.46
2023-01-19T22:20:29.394Z,78.40
2023-01-19T22:22:56.995Z,78.35
2023-01-19T22:25:27.724Z,78.29
2023-01-19T22:27:55.672Z,78.14
2023-01-19T22:30:22.682Z,78.18
2023-01-19T22:32:50.061Z,78.13
2023-01-19T22:35:17.089Z,78.18
2023-01-19T22:37:43.891Z,78.16
2023-01-19T22:40:11.812Z,78.11
2023-01-19T22:42:38.659Z,78.13
2023-01-19T22:45:06.174Z,78.13
2023-01-19T22:47:33.101Z,78.16
2023-01-19T22:49:59.885Z,78.19
2023-01-19T22:52:26.802Z,78.20
2023-01-19T22:54:57.900Z,78.29
